createdAt,value
2019-02-25T00:02:11.945Z,102044.30
2019-02-25T00:04:38.425Z,102042.20
2019-02-25T00:07:05.087Z,102045.70
2019-02-25T00:09:31.441Z,102050.27
2019-02-25T00:11:57.769Z,102048.16
2019-02-25T00:14:24.152Z,102051.63
2019-02-25T00:16:50.466Z,102048.13
2019-02-25T00:19:17.084Z,102048.16
2019-02-25T00:21:43.391Z,102044.29
2019-02-25T00:24:09.733Z,102043.44
2019-02-25T00:26:36.063Z,102047.41
2019-02-25T00:29:02.379Z,102056.55
2019-02-25T00:31:28.744Z,102050.92
2019-02-25T00:33:55.066Z,102053.53
2019-02-25T00:36:21.410Z,102047.96
2019-02-25T00:38:47.734Z,102046.23
2019-02-25T00:41:14.351Z,102037.98
2019-02-25T00:43:40.677Z,102033.24
2019-02-25T00:46:07.013Z,102025.09
2019-02-25T00:48:33.608Z,102013.45
2019-02-25T00:50:59.930Z,102018.62
2019-02-25T00:53:26.297Z,102014.73
2019-02-25T00:55:52.891Z,102021.09
2019-02-25T00:58:19.230Z,102026.14
2019-02-25T01:00:45.549Z,102022.56
2019-02-25T01:03:12.238Z,102025.89
2019-02-25T01:05:38.810Z,102024.52
2019-02-25T01:08:05.242Z,102022.29
2019-02-25T01:10:31.575Z,102020.64
2019-02-25T01:12:58.167Z,102021.51
2019-02-25T01:15:24.518Z,102025.81
2019-02-25T01:17:50.837Z,102017.67
2019-02-25T01:20:17.358Z,102022.99
2019-02-25T01:22:43.992Z,102024.80
2019-02-25T01:25:12.705Z,102022.38
2019-02-25T01:27:39.286Z,102013.74
2019-02-25T01:30:13.966Z,102015.16
2019-02-25T01:32:40.382Z,102008.27
2019-02-25T01:35:10.477Z,102005.34
2019-02-25T01:37:37.129Z,102009.27
2019-02-25T01:40:08.705Z,102003.69
2019-02-25T01:42:35.037Z,101998.06
2019-02-25T01:45:01.360Z,101992.03
2019-02-25T01:47:27.711Z,101985.94
2019-02-25T01:49:54.250Z,101986.41
2019-02-25T01:52:20.628Z,101982.91
2019-02-25T01:54:47.173Z,101991.16
2019-02-25T01:57:13.515Z,101983.41
2019-02-25T01:59:39.847Z,101985.19
2019-02-25T02:02:06.432Z,101987.75
2019-02-25T02:04:32.992Z,101985.13
2019-02-25T02:06:59.322Z,101985.17
2019-02-25T02:09:25.643Z,101988.51
2019-02-25T02:11:52.013Z,101993.52
2019-02-25T02:14:18.686Z,101988.47
2019-02-25T02:16:46.009Z,101985.37
2019-02-25T02:19:12.386Z,101983.39
2019-02-25T02:21:38.733Z,101988.63
2019-02-25T02:24:05.078Z,101981.78
2019-02-25T02:26:31.681Z,101987.38
2019-02-25T02:28:59.549Z,101980.00
2019-02-25T02:31:25.906Z,101980.44
2019-02-25T02:33:53.462Z,101977.90
2019-02-25T02:36:19.813Z,101981.35
2019-02-25T02:38:46.210Z,101977.52
2019-02-25T02:41:12.569Z,101986.58
2019-02-25T02:43:38.875Z,101985.70
2019-02-25T02:46:14.143Z,101993.91
2019-02-25T02:48:46.047Z,101995.63
2019-02-25T02:51:12.338Z,101989.59
2019-02-25T02:53:38.944Z,101994.91
2019-02-25T02:56:05.542Z,102000.56
2019-02-25T02:58:32.177Z,102012.59
2019-02-25T03:00:58.620Z,102007.45
2019-02-25T03:03:24.956Z,102010.00
2019-02-25T03:05:51.286Z,102004.78
2019-02-25T03:08:17.882Z,102003.96
2019-02-25T03:10:44.205Z,101997.50
2019-02-25T03:13:11.533Z,102001.84
2019-02-25T03:15:38.245Z,102004.91
2019-02-25T03:18:04.566Z,102002.23
2019-02-25T03:20:30.923Z,101991.89
2019-02-25T03:22:57.266Z,101990.17
2019-02-25T03:25:23.630Z,101980.25
2019-02-25T03:27:49.945Z,101984.41
2019-02-25T03:30:19.783Z,101980.59
2019-02-25T03:32:46.373Z,101980.25
2019-02-25T03:35:13.025Z,101983.74
2019-02-25T03:37:39.736Z,101981.63
2019-02-25T03:40:10.825Z,101973.87
2019-02-25T03:42:37.527Z,101977.31
2019-02-25T03:45:08.333Z,101976.53
2019-02-25T03:47:34.947Z,101979.09
2019-02-25T03:50:01.254Z,101975.63
2019-02-25T03:52:27.606Z,101977.32
2019-02-25T03:54:54.011Z,101978.61
2019-02-25T03:57:20.330Z,101977.74
2019-02-25T03:59:46.654Z,101978.14
2019-02-25T04:02:12.979Z,101979.00
2019-02-25T04:04:39.298Z,101974.69
2019-02-25T04:07:05.732Z,101968.73
2019-02-25T04:09:32.329Z,101961.80
2019-02-25T04:11:59.027Z,101964.38
2019-02-25T04:14:25.457Z,101965.72
2019-02-25T04:16:51.881Z,101969.25
2019-02-25T04:19:18.461Z,101972.63
2019-02-25T04:21:44.774Z,101970.55
2019-02-25T04:24:12.376Z,101974.42
2019-02-25T04:26:38.730Z,101977.40
2019-02-25T04:29:05.049Z,101970.08
2019-02-25T04:31:31.643Z,101974.45
2019-02-25T04:33:58.025Z,101961.06
2019-02-25T04:36:24.643Z,101962.35
2019-02-25T04:38:51.008Z,101964.52
2019-02-25T04:41:17.365Z,101963.21
2019-02-25T04:43:43.811Z,101955.84
2019-02-25T04:46:10.462Z,101955.45
2019-02-25T04:48:37.024Z,101962.18
2019-02-25T04:51:03.333Z,101960.11
2019-02-25T04:53:29.973Z,101958.43
2019-02-25T04:55:56.629Z,101959.34
2019-02-25T04:58:22.951Z,101967.52
2019-02-25T05:00:49.295Z,101970.58
2019-02-25T05:03:15.866Z,101986.99
2019-02-25T05:05:43.211Z,101988.22
2019-02-25T05:08:09.572Z,101988.22
2019-02-25T05:10:35.886Z,101988.25
2019-02-25T05:13:03.878Z,101985.70
2019-02-25T05:15:31.408Z,101989.58
2019-02-25T05:17:57.730Z,101983.11
2019-02-25T05:20:24.063Z,101977.55
2019-02-25T05:22:50.363Z,101973.27
2019-02-25T05:25:17.137Z,101980.59
2019-02-25T05:27:43.788Z,101984.05
2019-02-25T05:30:13.640Z,101976.75
2019-02-25T05:32:41.212Z,101971.98
2019-02-25T05:35:09.558Z,101956.86
2019-02-25T05:37:36.146Z,101956.86
2019-02-25T05:40:12.410Z,101946.92
2019-02-25T05:42:38.832Z,101952.55
2019-02-25T05:45:06.035Z,101943.11
2019-02-25T05:47:32.355Z,101936.69
2019-02-25T05:49:58.944Z,101931.09
2019-02-25T05:52:25.306Z,101911.27
2019-02-25T05:54:52.637Z,101913.42
2019-02-25T05:57:18.938Z,101922.36
2019-02-25T05:59:45.272Z,101924.86
2019-02-25T06:02:11.855Z,101936.06
2019-02-25T06:04:38.194Z,101935.20
2019-02-25T06:07:04.645Z,101939.13
2019-02-25T06:09:32.016Z,101948.48
2019-02-25T06:11:58.323Z,101953.56
2019-02-25T06:14:24.944Z,101971.23
2019-02-25T06:16:51.267Z,101973.31
2019-02-25T06:19:17.603Z,101982.92
2019-02-25T06:21:43.944Z,101979.91
2019-02-25T06:24:10.296Z,101983.39
2019-02-25T06:26:38.589Z,101986.33
2019-02-25T06:29:05.147Z,101997.50
2019-02-25T06:31:31.474Z,102005.66
2019-02-25T06:33:57.791Z,102000.91
2019-02-25T06:36:24.379Z,102000.42
2019-02-25T06:38:50.943Z,101997.11
2019-02-25T06:41:17.556Z,101996.76
2019-02-25T06:43:43.883Z,101996.33
2019-02-25T06:46:10.209Z,101998.75
2019-02-25T06:48:36.539Z,102005.30
2019-02-25T06:51:03.126Z,102004.33
2019-02-25T06:53:29.727Z,101993.89
2019-02-25T06:55:57.315Z,101997.22
2019-02-25T06:58:23.631Z,101998.81
2019-02-25T07:00:49.940Z,101997.37
2019-02-25T07:03:16.268Z,101998.12
2019-02-25T07:06:00.889Z,102002.33
2019-02-25T07:08:37.780Z,102004.81
2019-02-25T07:11:09.998Z,102009.73
2019-02-25T07:13:46.967Z,102015.56
2019-02-25T07:16:19.307Z,102012.33
2019-02-25T07:19:04.058Z,102016.83
2019-02-25T07:21:48.638Z,102016.66
2019-02-25T07:24:19.190Z,102011.77
2019-02-25T07:26:53.370Z,102010.25
2019-02-25T07:29:33.828Z,102002.71
2019-02-25T07:32:04.997Z,102005.08
2019-02-25T07:34:36.097Z,102006.80
2019-02-25T07:37:04.617Z,102010.27
2019-02-25T07:39:41.973Z,102002.97
2019-02-25T07:42:08.320Z,102004.56
2019-02-25T07:44:39.859Z,101990.76
2019-02-25T07:47:13.798Z,101995.99
2019-02-25T07:49:42.049Z,101985.27
2019-02-25T07:52:19.248Z,101988.97
2019-02-25T07:54:50.540Z,101993.22
2019-02-25T07:57:24.853Z,102000.06
2019-02-25T07:59:53.090Z,101999.66
2019-02-25T08:02:27.163Z,101997.84
2019-02-25T08:04:53.807Z,102005.54
2019-02-25T08:07:22.318Z,102011.10
2019-02-25T08:09:53.550Z,102012.20
2019-02-25T08:12:30.735Z,102017.53
2019-02-25T08:15:10.894Z,102012.73
2019-02-25T08:17:46.109Z,102007.38
2019-02-25T08:20:14.690Z,102003.53
2019-02-25T08:22:54.650Z,102017.20
2019-02-25T08:25:23.626Z,102011.61
2019-02-25T08:28:02.166Z,102018.21
2019-02-25T08:30:28.992Z,102026.41
2019-02-25T08:33:03.127Z,102013.10
2019-02-25T08:36:02.178Z,102020.22
2019-02-25T08:38:48.701Z,102021.13
2019-02-25T08:41:20.082Z,102024.29
2019-02-25T08:43:48.445Z,102025.59
2019-02-25T08:46:22.463Z,102022.56
2019-02-25T08:48:50.796Z,102025.22
2019-02-25T08:51:17.287Z,102022.63
2019-02-25T08:53:43.732Z,102022.20
2019-02-25T08:56:10.052Z,102018.50
2019-02-25T08:58:36.401Z,102020.77
2019-02-25T09:01:03.193Z,102022.95
2019-02-25T09:03:29.550Z,102023.05
2019-02-25T09:05:56.191Z,102020.84
2019-02-25T09:08:22.584Z,102024.31
2019-02-25T09:10:49.215Z,102018.70
2019-02-25T09:13:15.837Z,102012.38
2019-02-25T09:15:42.186Z,102006.95
2019-02-25T09:18:08.919Z,102013.80
2019-02-25T09:20:35.354Z,102010.38
2019-02-25T09:23:01.736Z,102013.75
2019-02-25T09:25:28.072Z,102008.88
2019-02-25T09:27:54.648Z,102010.64
2019-02-25T09:30:21.305Z,102006.20
2019-02-25T09:32:47.655Z,102008.25
2019-02-25T09:35:14.247Z,102011.92
2019-02-25T09:37:40.653Z,102022.21
2019-02-25T09:40:15.517Z,102017.77
2019-02-25T09:42:42.041Z,102018.14
2019-02-25T09:45:13.263Z,102016.19
2019-02-25T09:47:39.568Z,102028.59
2019-02-25T09:50:12.905Z,102026.08
2019-02-25T09:52:39.455Z,102022.04
2019-02-25T09:55:09.484Z,102033.31
2019-02-25T09:57:36.842Z,102036.98
2019-02-25T10:00:10.139Z,102040.97
2019-02-25T10:02:36.775Z,102041.62
2019-02-25T10:05:06.430Z,102044.91
2019-02-25T10:07:32.824Z,102040.36
2019-02-25T10:09:59.260Z,102035.68
2019-02-25T10:12:26.053Z,102037.44
2019-02-25T10:14:52.790Z,102028.73
2019-02-25T10:17:23.820Z,102034.96
2019-02-25T10:19:47.704Z,102029.38
2019-02-25T10:22:14.416Z,102023.58
2019-02-25T10:24:40.763Z,102027.59
2019-02-25T10:27:07.275Z,102020.00
2019-02-25T10:29:33.604Z,102027.36
2019-02-25T10:32:00.630Z,102028.23
2019-02-25T10:34:28.456Z,102027.44
2019-02-25T10:36:54.796Z,102028.62
2019-02-25T10:39:21.712Z,102026.25
2019-02-25T10:41:55.456Z,102017.30
2019-02-25T10:44:24.093Z,102013.37
2019-02-25T10:46:50.482Z,102012.98
2019-02-25T10:49:16.791Z,102010.77
2019-02-25T10:51:43.828Z,102003.18
2019-02-25T10:54:11.330Z,102008.67
2019-02-25T10:56:43.449Z,101998.21
2019-02-25T10:59:09.768Z,102006.00
2019-02-25T11:01:37.527Z,102007.38
2019-02-25T11:04:04.578Z,101998.38
2019-02-25T11:06:35.118Z,101991.72
2019-02-25T11:09:18.124Z,101981.45
2019-02-25T11:11:44.883Z,101984.33
2019-02-25T11:14:11.589Z,101962.94
2019-02-25T11:16:38.263Z,101979.85
2019-02-25T11:19:04.590Z,101981.38
2019-02-25T11:21:32.785Z,101976.23
2019-02-25T11:23:59.276Z,101974.28
2019-02-25T11:26:26.651Z,101961.09
2019-02-25T11:28:53.881Z,101962.20
2019-02-25T11:31:24.113Z,101946.35
2019-02-25T11:33:48.720Z,101943.27
2019-02-25T11:36:17.749Z,101939.30
2019-02-25T11:38:44.997Z,101931.63
2019-02-25T11:41:11.402Z,101930.95
2019-02-25T11:43:37.792Z,101919.84
2019-02-25T11:46:04.104Z,101899.39
2019-02-25T11:48:30.441Z,101905.63
2019-02-25T11:50:57.056Z,101904.72
2019-02-25T11:53:23.410Z,101899.62
2019-02-25T11:55:50.050Z,101892.96
2019-02-25T11:58:17.377Z,101888.19
2019-02-25T12:00:45.045Z,101885.61
2019-02-25T12:03:11.366Z,101878.61
2019-02-25T12:05:37.708Z,101878.34
2019-02-25T12:08:04.274Z,101872.91
2019-02-25T12:10:30.858Z,101869.51
2019-02-25T12:12:58.195Z,101864.48
2019-02-25T12:15:24.793Z,101862.56
2019-02-25T12:17:51.167Z,101856.25
2019-02-25T12:20:17.493Z,101847.55
2019-02-25T12:22:44.085Z,101865.98
2019-02-25T12:25:19.383Z,101863.81
2019-02-25T12:27:45.702Z,101862.11
2019-02-25T12:30:23.844Z,101870.13
2019-02-25T12:32:50.451Z,101872.91
2019-02-25T12:35:17.028Z,101868.73
2019-02-25T12:37:43.387Z,101858.71
2019-02-25T12:40:13.087Z,101855.34
2019-02-25T12:42:39.449Z,101846.37
2019-02-25T12:45:08.985Z,101848.62
2019-02-25T12:47:35.486Z,101836.53
2019-02-25T12:50:05.457Z,101837.20
2019-02-25T12:52:31.885Z,101834.67
2019-02-25T12:55:01.401Z,101833.45
2019-02-25T12:57:28.277Z,101815.98
2019-02-25T12:59:55.904Z,101828.30
2019-02-25T13:02:22.323Z,101821.45
2019-02-25T13:04:48.805Z,101793.98
2019-02-25T13:07:15.089Z,101815.02
2019-02-25T13:09:41.398Z,101809.70
2019-02-25T13:12:09.021Z,101802.80
2019-02-25T13:14:35.424Z,101808.08
2019-02-25T13:17:01.892Z,101808.41
2019-02-25T13:19:28.540Z,101795.69
2019-02-25T13:21:54.927Z,101804.23
2019-02-25T13:24:21.270Z,101808.30
2019-02-25T13:26:47.607Z,101803.39
2019-02-25T13:29:14.043Z,101799.80
2019-02-25T13:31:40.461Z,101795.23
2019-02-25T13:34:07.200Z,101799.48
2019-02-25T13:36:34.574Z,101786.61
2019-02-25T13:39:01.225Z,101784.25
2019-02-25T13:41:29.033Z,101780.09
2019-02-25T13:43:55.532Z,101779.86
2019-02-25T13:46:22.014Z,101764.81
2019-02-25T13:48:48.469Z,101767.73
2019-02-25T13:51:15.177Z,101765.25
2019-02-25T13:53:41.878Z,101760.81
2019-02-25T13:56:08.331Z,101751.70
2019-02-25T13:58:34.682Z,101755.20
2019-02-25T14:01:02.964Z,101743.59
2019-02-25T14:03:29.430Z,101747.20
2019-02-25T14:05:56.016Z,101751.06
2019-02-25T14:08:23.045Z,101747.04
2019-02-25T14:10:49.681Z,101738.53
2019-02-25T14:13:16.347Z,101727.55
2019-02-25T14:15:42.657Z,101728.20
2019-02-25T14:18:08.986Z,101728.47
2019-02-25T14:20:35.314Z,101727.59
2019-02-25T14:23:01.625Z,101723.34
2019-02-25T14:25:29.459Z,101729.95
2019-02-25T14:27:58.559Z,101730.68
2019-02-25T14:30:27.365Z,101733.09
2019-02-25T14:32:56.808Z,101727.52
2019-02-25T14:35:28.108Z,101720.50
2019-02-25T14:37:59.054Z,101727.88
2019-02-25T14:40:26.898Z,101733.13
2019-02-25T14:42:54.652Z,101733.12
2019-02-25T14:45:24.596Z,101747.67
2019-02-25T14:47:55.374Z,101751.95
2019-02-25T14:50:20.376Z,101752.85
2019-02-25T14:52:51.092Z,101756.19
2019-02-25T14:55:19.434Z,101753.14
2019-02-25T14:57:45.852Z,101744.30
2019-02-25T15:00:24.232Z,101742.34
2019-02-25T15:02:50.881Z,101749.11
2019-02-25T15:05:19.279Z,101755.33
2019-02-25T15:07:46.741Z,101748.86
2019-02-25T15:10:14.135Z,101742.48
2019-02-25T15:12:40.848Z,101740.72
2019-02-25T15:15:13.968Z,101734.87
2019-02-25T15:17:41.899Z,101742.77
2019-02-25T15:20:16.230Z,101738.83
2019-02-25T15:22:42.478Z,101724.90
2019-02-25T15:25:11.420Z,101719.45
2019-02-25T15:27:37.970Z,101716.84
2019-02-25T15:30:20.599Z,101715.92
2019-02-25T15:32:55.599Z,101711.37
2019-02-25T15:35:17.436Z,101712.67
2019-02-25T15:37:44.812Z,101713.61
2019-02-25T15:40:18.010Z,101711.31
2019-02-25T15:42:43.791Z,101707.41
2019-02-25T15:45:18.397Z,101716.03
2019-02-25T15:47:46.835Z,101707.89
2019-02-25T15:50:15.036Z,101709.61
2019-02-25T15:52:41.359Z,101702.06
2019-02-25T15:55:13.056Z,101701.97
2019-02-25T15:57:40.099Z,101701.05
2019-02-25T16:00:15.913Z,101699.39
2019-02-25T16:02:42.788Z,101704.94
2019-02-25T16:05:10.014Z,101694.87
2019-02-25T16:07:38.069Z,101694.37
2019-02-25T16:10:11.875Z,101706.07
2019-02-25T16:12:38.516Z,101703.91
2019-02-25T16:15:15.697Z,101707.59
2019-02-25T16:17:49.667Z,101695.54
2019-02-25T16:20:20.214Z,101700.88
2019-02-25T16:22:46.674Z,101703.84
2019-02-25T16:25:20.526Z,101710.22
2019-02-25T16:27:49.885Z,101708.28
2019-02-25T16:30:16.995Z,101706.50
2019-02-25T16:32:46.205Z,101707.13
2019-02-25T16:35:13.923Z,101709.38
2019-02-25T16:37:42.815Z,101711.91
2019-02-25T16:40:13.769Z,101709.78
2019-02-25T16:42:41.395Z,101717.02
2019-02-25T16:45:15.560Z,101717.17
2019-02-25T16:47:42.003Z,101719.12
2019-02-25T16:50:14.102Z,101717.63
2019-02-25T16:52:42.721Z,101719.77
2019-02-25T16:55:15.617Z,101719.05
2019-02-25T16:57:43.505Z,101728.42
2019-02-25T17:00:17.880Z,101736.48
2019-02-25T17:02:44.904Z,101737.10
2019-02-25T17:05:11.499Z,101734.34
2019-02-25T17:07:40.411Z,101730.84
2019-02-25T17:10:11.939Z,101730.92
2019-02-25T17:12:38.543Z,101731.92
2019-02-25T17:15:10.541Z,101729.39
2019-02-25T17:17:37.240Z,101734.58
2019-02-25T17:20:12.944Z,101725.03
2019-02-25T17:22:38.864Z,101724.64
2019-02-25T17:25:11.587Z,101723.05
2019-02-25T17:27:38.241Z,101722.27
2019-02-25T17:30:21.953Z,101715.72
2019-02-25T17:32:49.461Z,101716.39
2019-02-25T17:35:19.006Z,101729.97
2019-02-25T17:37:46.299Z,101721.19
2019-02-25T17:40:17.818Z,101713.02
2019-02-25T17:42:45.313Z,101717.94
2019-02-25T17:45:19.557Z,101713.83
2019-02-25T17:47:46.159Z,101706.05
2019-02-25T17:50:16.615Z,101699.72
2019-02-25T17:52:44.652Z,101705.51
2019-02-25T17:55:17.363Z,101705.18
2019-02-25T17:57:44.079Z,101712.52
2019-02-25T18:00:15.450Z,101713.86
2019-02-25T18:02:43.954Z,101710.30
2019-02-25T18:05:12.077Z,101711.60
2019-02-25T18:07:40.045Z,101710.09
2019-02-25T18:10:10.753Z,101718.59
2019-02-25T18:12:39.163Z,101715.02
2019-02-25T18:15:27.962Z,101717.53
2019-02-25T18:17:55.215Z,101712.80
2019-02-25T18:20:23.228Z,101707.31
2019-02-25T18:22:51.371Z,101715.00
2019-02-25T18:25:18.465Z,101705.30
2019-02-25T18:27:49.461Z,101706.80
2019-02-25T18:30:22.734Z,101696.77
2019-02-25T18:32:50.473Z,101696.42
2019-02-25T18:35:18.647Z,101694.26
2019-02-25T18:37:46.303Z,101688.53
2019-02-25T18:40:16.335Z,101681.94
2019-02-25T18:42:44.481Z,101677.00
2019-02-25T18:45:18.486Z,101681.88
2019-02-25T18:47:45.897Z,101678.63
2019-02-25T18:50:19.935Z,101677.83
2019-02-25T18:52:46.948Z,101690.05
2019-02-25T18:55:20.278Z,101683.48
2019-02-25T18:57:49.831Z,101687.83
2019-02-25T19:00:34.034Z,101687.24
2019-02-25T19:03:02.544Z,101687.06
2019-02-25T19:05:31.444Z,101691.37
2019-02-25T19:07:58.479Z,101689.00
2019-02-25T19:10:26.848Z,101694.05
2019-02-25T19:12:53.851Z,101689.28
2019-02-25T19:15:21.364Z,101693.52
2019-02-25T19:17:49.608Z,101688.47
2019-02-25T19:20:16.358Z,101695.95
2019-02-25T19:22:44.302Z,101694.63
2019-02-25T19:25:17.652Z,101696.84
2019-02-25T19:27:44.055Z,101690.60
2019-02-25T19:30:17.430Z,101695.52
2019-02-25T19:32:43.130Z,101692.61
2019-02-25T19:35:10.357Z,101692.13
2019-02-25T19:37:39.978Z,101688.09
2019-02-25T19:40:14.948Z,101695.75
2019-02-25T19:42:43.227Z,101679.11
2019-02-25T19:45:10.758Z,101681.37
2019-02-25T19:47:48.063Z,101677.75
2019-02-25T19:50:19.997Z,101674.28
2019-02-25T19:52:54.671Z,101675.16
2019-02-25T19:55:23.245Z,101684.55
2019-02-25T19:57:49.596Z,101681.27
2019-02-25T20:00:28.175Z,101676.78
2019-02-25T20:03:05.801Z,101682.73
2019-02-25T20:05:28.704Z,101671.58
2019-02-25T20:07:55.318Z,101673.39
2019-02-25T20:10:22.135Z,101673.30
2019-02-25T20:12:50.959Z,101674.25
2019-02-25T20:15:20.838Z,101671.48
2019-02-25T20:17:48.834Z,101689.45
2019-02-25T20:20:16.509Z,101683.92
2019-02-25T20:22:42.839Z,101684.55
2019-02-25T20:25:16.236Z,101690.45
2019-02-25T20:27:42.512Z,101691.12
2019-02-25T20:30:19.639Z,101687.25
2019-02-25T20:32:47.281Z,101686.69
2019-02-25T20:35:19.944Z,101693.61
2019-02-25T20:37:51.129Z,101688.88
2019-02-25T20:40:17.297Z,101693.86
2019-02-25T20:42:46.769Z,101691.98
2019-02-25T20:45:21.024Z,101686.36
2019-02-25T20:47:48.075Z,101688.08
2019-02-25T20:50:17.793Z,101683.44
2019-02-25T20:52:44.724Z,101679.52
2019-02-25T20:55:13.185Z,101693.66
2019-02-25T20:57:40.231Z,101679.77
2019-02-25T21:00:15.931Z,101682.83
2019-02-25T21:02:43.835Z,101691.88
2019-02-25T21:05:13.986Z,101694.52
2019-02-25T21:07:38.856Z,101691.95
2019-02-25T21:10:11.708Z,101698.93
2019-02-25T21:12:39.050Z,101698.48
2019-02-25T21:15:13.145Z,101704.89
2019-02-25T21:17:40.228Z,101715.69
2019-02-25T21:20:13.300Z,101719.52
2019-02-25T21:22:39.918Z,101717.61
2019-02-25T21:25:09.101Z,101726.13
2019-02-25T21:27:37.016Z,101723.27
2019-02-25T21:30:11.983Z,101723.92
2019-02-25T21:32:40.581Z,101722.61
2019-02-25T21:35:14.224Z,101717.87
2019-02-25T21:37:44.701Z,101713.97
2019-02-25T21:40:15.633Z,101709.45
2019-02-25T21:42:44.370Z,101698.81
2019-02-25T21:45:17.969Z,101699.75
2019-02-25T21:47:42.890Z,101693.02
2019-02-25T21:50:17.104Z,101681.97
2019-02-25T21:52:45.625Z,101669.40
2019-02-25T21:55:12.786Z,101660.17
2019-02-25T21:57:39.128Z,101657.67
2019-02-25T22:00:24.109Z,101656.95
2019-02-25T22:02:52.678Z,101650.48
2019-02-25T22:05:21.291Z,101642.12
2019-02-25T22:07:52.417Z,101636.57
2019-02-25T22:10:18.940Z,101639.72
2019-02-25T22:12:45.301Z,101636.95
2019-02-25T22:15:19.717Z,101629.02
2019-02-25T22:17:49.722Z,101622.68
2019-02-25T22:20:16.687Z,101617.52
2019-02-25T22:22:44.359Z,101616.70
2019-02-25T22:25:19.269Z,101608.20
2019-02-25T22:27:45.900Z,101601.27
2019-02-25T22:30:14.582Z,101592.05
2019-02-25T22:32:43.184Z,101588.08
2019-02-25T22:35:12.830Z,101570.34
2019-02-25T22:37:44.197Z,101577.67
2019-02-25T22:40:15.102Z,101579.69
2019-02-25T22:42:41.529Z,101578.13
2019-02-25T22:45:18.819Z,101577.22
2019-02-25T22:47:45.397Z,101577.92
2019-02-25T22:50:13.466Z,101580.88
2019-02-25T22:52:40.998Z,101586.90
2019-02-25T22:55:10.087Z,101594.89
2019-02-25T22:57:37.858Z,101594.31
2019-02-25T23:00:33.206Z,101598.09
2019-02-25T23:03:01.578Z,101598.88
2019-02-25T23:05:29.544Z,101595.95
2019-02-25T23:07:55.897Z,101606.78
2019-02-25T23:10:24.212Z,101615.17
2019-02-25T23:12:50.657Z,101621.83
2019-02-25T23:15:18.281Z,101617.47
2019-02-25T23:17:46.452Z,101618.16
2019-02-25T23:20:13.107Z,101621.97
2019-02-25T23:22:39.468Z,101619.00
2019-02-25T23:25:08.422Z,101619.66
2019-02-25T23:27:36.525Z,101619.48
2019-02-25T23:30:10.136Z,101623.23
2019-02-25T23:32:38.781Z,101624.30
2019-02-25T23:35:09.412Z,101624.13
2019-02-25T23:37:34.797Z,101615.03
2019-02-25T23:40:04.471Z,101618.61
2019-02-25T23:42:33.144Z,101614.09
2019-02-25T23:45:00.299Z,101621.98
2019-02-25T23:47:28.816Z,101625.41
2019-02-25T23:49:55.212Z,101622.72
2019-02-25T23:52:21.583Z,101631.67
2019-02-25T23:54:49.741Z,101632.69
2019-02-25T23:57:17.406Z,101634.01
2019-02-25T23:59:47.045Z,101628.02
